Billingsville, Indiana
Current Conditions -  °F | °C
As of 4:35 PM on Friday 28 Nov 2014 (Local Time) from KI67 Reporting Station
Clear Clear  
Wind Chill: -3°   Ceiling: Unl
Heat Index:   Visibility: 10mi
Dew Point: -7°   Wind: 9mph
Humidity: 56%   Direction: 170°S
Pressure: 30.21"   Gusts: NA
Location:  39.6086°N, 84.9137°W
Report Text: KI67 282135Z AUTO 17008KT 10SM CLR 01/M07 A3021 RMK AO1
Loading
Personal Weather Stations






























Interactive Weather Map New forecast layout! Learn more

10-Day Weather Forecast

Advertisements
Track Severe Weather on mobile